sensor_id;sensor_type;location;lat;lon;timestamp;temperature;humidity
65074;DHT22;52218;51.224;-2.328;2022-12-07T00:01:24;2.60;99.90
65074;DHT22;52218;51.224;-2.328;2022-12-07T00:05:06;2.50;99.90
65074;DHT22;52218;51.224;-2.328;2022-12-07T00:08:49;2.30;99.90
65074;DHT22;52218;51.224;-2.328;2022-12-07T00:12:31;2.20;99.90
65074;DHT22;52218;51.224;-2.328;2022-12-07T00:16:17;2.10;99.90
65074;DHT22;52218;51.224;-2.328;2022-12-07T00:20:00;2.00;99.90
65074;DHT22;52218;51.224;-2.328;2022-12-07T00:23:44;1.90;99.90
65074;DHT22;52218;51.224;-2.328;2022-12-07T00:27:27;1.80;99.90
65074;DHT22;52218;51.224;-2.328;2022-12-07T00:31:11;1.60;99.90
65074;DHT22;52218;51.224;-2.328;2022-12-07T00:34:54;1.50;99.90
65074;DHT22;52218;51.224;-2.328;2022-12-07T00:38:36;1.40;99.90
65074;DHT22;52218;51.224;-2.328;2022-12-07T00:42:19;1.40;99.90
65074;DHT22;52218;51.224;-2.328;2022-12-07T00:46:01;1.30;99.90
65074;DHT22;52218;51.224;-2.328;2022-12-07T00:49:43;1.20;99.90
65074;DHT22;52218;51.224;-2.328;2022-12-07T00:53:25;1.10;99.90
65074;DHT22;52218;51.224;-2.328;2022-12-07T00:57:07;1.00;99.90
65074;DHT22;52218;51.224;-2.328;2022-12-07T01:00:49;1.00;99.90
65074;DHT22;52218;51.224;-2.328;2022-12-07T01:04:34;0.90;99.90
65074;DHT22;52218;51.224;-2.328;2022-12-07T01:08:16;0.80;99.90
65074;DHT22;52218;51.224;-2.328;2022-12-07T01:11:58;0.80;99.90
65074;DHT22;52218;51.224;-2.328;2022-12-07T01:15:44;0.70;99.90
65074;DHT22;52218;51.224;-2.328;2022-12-07T01:19:26;0.60;99.90
65074;DHT22;52218;51.224;-2.328;2022-12-07T01:23:08;0.60;99.90
65074;DHT22;52218;51.224;-2.328;2022-12-07T01:26:50;0.50;99.90
65074;DHT22;52218;51.224;-2.328;2022-12-07T01:30:32;0.50;99.90
65074;DHT22;52218;51.224;-2.328;2022-12-07T01:34:14;0.40;99.90
65074;DHT22;52218;51.224;-2.328;2022-12-07T01:37:56;0.40;99.90
65074;DHT22;52218;51.224;-2.328;2022-12-07T01:41:40;0.40;99.90
65074;DHT22;52218;51.224;-2.328;2022-12-07T01:45:39;0.40;99.90
65074;DHT22;52218;51.224;-2.328;2022-12-07T01:49:28;0.40;99.90
65074;DHT22;52218;51.224;-2.328;2022-12-07T01:53:12;0.40;99.90
65074;DHT22;52218;51.224;-2.328;2022-12-07T01:56:56;0.30;99.90
65074;DHT22;52218;51.224;-2.328;2022-12-07T02:00:39;0.30;99.90
65074;DHT22;52218;51.224;-2.328;2022-12-07T02:04:23;0.30;99.90
65074;DHT22;52218;51.224;-2.328;2022-12-07T02:08:06;0.20;99.90
65074;DHT22;52218;51.224;-2.328;2022-12-07T02:11:49;0.20;99.90
65074;DHT22;52218;51.224;-2.328;2022-12-07T02:31:42;0.00;99.90
65074;DHT22;52218;51.224;-2.328;2022-12-07T02:39:41;-0.10;99.90
65074;DHT22;52218;51.224;-2.328;2022-12-07T02:43:52;-0.10;99.90
65074;DHT22;52218;51.224;-2.328;2022-12-07T02:47:36;-0.20;99.90
65074;DHT22;52218;51.224;-2.328;2022-12-07T02:51:19;-0.20;99.90
65074;DHT22;52218;51.224;-2.328;2022-12-07T02:55:01;-0.30;99.90
65074;DHT22;52218;51.224;-2.328;2022-12-07T03:03:16;-0.30;99.90
65074;DHT22;52218;51.224;-2.328;2022-12-07T03:07:18;-0.40;99.90
65074;DHT22;52218;51.224;-2.328;2022-12-07T03:11:28;-0.40;99.90
65074;DHT22;52218;51.224;-2.328;2022-12-07T03:15:17;-0.50;99.90
65074;DHT22;52218;51.224;-2.328;2022-12-07T03:19:14;-0.50;99.90
65074;DHT22;52218;51.224;-2.328;2022-12-07T03:22:57;-0.50;99.90
65074;DHT22;52218;51.224;-2.328;2022-12-07T03:26:44;-0.60;99.90
65074;DHT22;52218;51.224;-2.328;2022-12-07T03:30:44;-0.50;99.90
65074;DHT22;52218;51.224;-2.328;2022-12-07T03:34:32;-0.50;99.90
65074;DHT22;52218;51.224;-2.328;2022-12-07T03:38:18;-0.50;99.90
65074;DHT22;52218;51.224;-2.328;2022-12-07T03:42:03;-0.50;99.90
65074;DHT22;52218;51.224;-2.328;2022-12-07T03:46:17;-0.50;99.90
65074;DHT22;52218;51.224;-2.328;2022-12-07T03:54:07;-0.60;99.90
65074;DHT22;52218;51.224;-2.328;2022-12-07T03:57:53;-0.60;99.90
65074;DHT22;52218;51.224;-2.328;2022-12-07T04:01:36;-0.70;99.90
65074;DHT22;52218;51.224;-2.328;2022-12-07T04:05:19;-0.70;99.90
65074;DHT22;52218;51.224;-2.328;2022-12-07T04:09:01;-0.80;99.90
65074;DHT22;52218;51.224;-2.328;2022-12-07T04:12:43;-0.80;99.90
65074;DHT22;52218;51.224;-2.328;2022-12-07T04:16:25;-0.80;99.90
65074;DHT22;52218;51.224;-2.328;2022-12-07T04:20:07;-0.90;99.90
65074;DHT22;52218;51.224;-2.328;2022-12-07T04:23:49;-0.90;99.90
65074;DHT22;52218;51.224;-2.328;2022-12-07T04:27:31;-0.90;99.90
65074;DHT22;52218;51.224;-2.328;2022-12-07T04:31:13;-0.90;99.90
65074;DHT22;52218;51.224;-2.328;2022-12-07T04:34:56;-1.00;99.90
65074;DHT22;52218;51.224;-2.328;2022-12-07T04:38:38;-1.00;99.90
65074;DHT22;52218;51.224;-2.328;2022-12-07T04:42:20;-1.00;99.90
65074;DHT22;52218;51.224;-2.328;2022-12-07T04:46:02;-1.00;99.90
65074;DHT22;52218;51.224;-2.328;2022-12-07T04:49:44;-1.00;99.90
65074;DHT22;52218;51.224;-2.328;2022-12-07T04:53:26;-1.00;99.90
65074;DHT22;52218;51.224;-2.328;2022-12-07T04:57:08;-1.00;99.90
65074;DHT22;52218;51.224;-2.328;2022-12-07T05:00:54;-1.00;99.90
65074;DHT22;52218;51.224;-2.328;2022-12-07T05:04:37;-1.10;99.90
65074;DHT22;52218;51.224;-2.328;2022-12-07T05:08:19;-1.20;99.90
65074;DHT22;52218;51.224;-2.328;2022-12-07T05:12:01;-1.20;99.90
65074;DHT22;52218;51.224;-2.328;2022-12-07T05:15:43;-1.20;99.90
65074;DHT22;52218;51.224;-2.328;2022-12-07T05:19:25;-1.30;99.90
65074;DHT22;52218;51.224;-2.328;2022-12-07T05:23:08;-1.30;99.90
65074;DHT22;52218;51.224;-2.328;2022-12-07T05:26:50;-1.30;99.90
65074;DHT22;52218;51.224;-2.328;2022-12-07T05:30:32;-1.30;99.90
65074;DHT22;52218;51.224;-2.328;2022-12-07T05:34:15;-1.30;99.90
65074;DHT22;52218;51.224;-2.328;2022-12-07T05:37:57;-1.40;99.90
65074;DHT22;52218;51.224;-2.328;2022-12-07T05:41:40;-1.40;99.90
65074;DHT22;52218;51.224;-2.328;2022-12-07T05:45:40;-1.40;99.90
65074;DHT22;52218;51.224;-2.328;2022-12-07T05:49:23;-1.40;99.90
65074;DHT22;52218;51.224;-2.328;2022-12-07T05:53:05;-1.40;99.90
65074;DHT22;52218;51.224;-2.328;2022-12-07T05:56:47;-1.50;99.90
65074;DHT22;52218;51.224;-2.328;2022-12-07T06:00:29;-1.50;99.90
65074;DHT22;52218;51.224;-2.328;2022-12-07T06:04:11;-1.50;99.90
65074;DHT22;52218;51.224;-2.328;2022-12-07T06:07:53;-1.50;99.90
65074;DHT22;52218;51.224;-2.328;2022-12-07T06:11:35;-1.50;99.90
65074;DHT22;52218;51.224;-2.328;2022-12-07T06:15:37;-1.60;99.90
65074;DHT22;52218;51.224;-2.328;2022-12-07T06:19:19;-1.60;99.90
65074;DHT22;52218;51.224;-2.328;2022-12-07T06:23:01;-1.60;99.90
65074;DHT22;52218;51.224;-2.328;2022-12-07T06:26:44;-1.60;99.90
65074;DHT22;52218;51.224;-2.328;2022-12-07T06:30:26;-1.70;99.90
65074;DHT22;52218;51.224;-2.328;2022-12-07T06:34:13;-1.70;99.90
65074;DHT22;52218;51.224;-2.328;2022-12-07T06:37:56;-1.60;99.90
65074;DHT22;52218;51.224;-2.328;2022-12-07T06:41:38;-1.60;99.90
65074;DHT22;52218;51.224;-2.328;2022-12-07T06:45:20;-1.50;99.90
65074;DHT22;52218;51.224;-2.328;2022-12-07T06:49:04;-1.40;99.90
65074;DHT22;52218;51.224;-2.328;2022-12-07T06:52:46;-1.40;99.90
65074;DHT22;52218;51.224;-2.328;2022-12-07T06:56:28;-1.30;99.90
65074;DHT22;52218;51.224;-2.328;2022-12-07T07:00:11;-1.30;99.90
65074;DHT22;52218;51.224;-2.328;2022-12-07T07:04:02;-1.30;99.90
65074;DHT22;52218;51.224;-2.328;2022-12-07T07:07:44;-1.30;99.90
65074;DHT22;52218;51.224;-2.328;2022-12-07T07:11:46;-1.20;99.90
65074;DHT22;52218;51.224;-2.328;2022-12-07T07:15:29;-1.30;99.90
65074;DHT22;52218;51.224;-2.328;2022-12-07T07:19:11;-1.30;99.90
65074;DHT22;52218;51.224;-2.328;2022-12-07T07:22:56;-1.30;99.90
65074;DHT22;52218;51.224;-2.328;2022-12-07T07:26:38;-1.30;99.90
65074;DHT22;52218;51.224;-2.328;2022-12-07T07:30:20;-1.30;99.90
65074;DHT22;52218;51.224;-2.328;2022-12-07T07:34:02;-1.30;99.90
65074;DHT22;52218;51.224;-2.328;2022-12-07T07:37:45;-1.30;99.90
65074;DHT22;52218;51.224;-2.328;2022-12-07T07:41:27;-1.30;99.90
65074;DHT22;52218;51.224;-2.328;2022-12-07T07:45:09;-1.40;99.90
65074;DHT22;52218;51.224;-2.328;2022-12-07T07:48:51;-1.40;99.90
65074;DHT22;52218;51.224;-2.328;2022-12-07T07:52:33;-1.40;99.90
65074;DHT22;52218;51.224;-2.328;2022-12-07T07:56:16;-1.40;99.90
65074;DHT22;52218;51.224;-2.328;2022-12-07T07:59:58;-1.40;99.90
65074;DHT22;52218;51.224;-2.328;2022-12-07T08:03:40;-1.40;99.90
65074;DHT22;52218;51.224;-2.328;2022-12-07T08:07:22;-1.40;99.90
65074;DHT22;52218;51.224;-2.328;2022-12-07T08:11:08;-1.40;99.90
65074;DHT22;52218;51.224;-2.328;2022-12-07T08:14:50;-1.40;99.90
65074;DHT22;52218;51.224;-2.328;2022-12-07T08:18:35;-1.40;99.90
65074;DHT22;52218;51.224;-2.328;2022-12-07T08:22:18;-1.40;99.90
65074;DHT22;52218;51.224;-2.328;2022-12-07T08:26:01;-1.40;99.90
65074;DHT22;52218;51.224;-2.328;2022-12-07T08:29:44;-1.30;99.90
65074;DHT22;52218;51.224;-2.328;2022-12-07T08:33:26;-1.30;99.90
65074;DHT22;52218;51.224;-2.328;2022-12-07T08:37:08;-1.30;99.90
65074;DHT22;52218;51.224;-2.328;2022-12-07T08:40:55;-1.20;99.90
65074;DHT22;52218;51.224;-2.328;2022-12-07T08:44:37;-1.20;99.90
65074;DHT22;52218;51.224;-2.328;2022-12-07T08:48:19;-1.20;99.90
65074;DHT22;52218;51.224;-2.328;2022-12-07T08:52:05;-1.10;99.90
65074;DHT22;52218;51.224;-2.328;2022-12-07T08:55:48;-0.90;99.90
65074;DHT22;52218;51.224;-2.328;2022-12-07T08:59:30;-0.60;99.90
65074;DHT22;52218;51.224;-2.328;2022-12-07T09:03:13;-0.30;99.90
65074;DHT22;52218;51.224;-2.328;2022-12-07T09:06:56;-0.10;99.90
65074;DHT22;52218;51.224;-2.328;2022-12-07T09:10:38;0.30;99.90
65074;DHT22;52218;51.224;-2.328;2022-12-07T09:14:20;0.50;99.90
65074;DHT22;52218;51.224;-2.328;2022-12-07T09:18:02;0.60;99.90
65074;DHT22;52218;51.224;-2.328;2022-12-07T09:21:44;0.70;99.90
65074;DHT22;52218;51.224;-2.328;2022-12-07T09:25:26;0.90;99.90
65074;DHT22;52218;51.224;-2.328;2022-12-07T09:29:08;1.00;99.90
65074;DHT22;52218;51.224;-2.328;2022-12-07T09:32:53;1.20;99.90
65074;DHT22;52218;51.224;-2.328;2022-12-07T09:36:35;1.50;99.90
65074;DHT22;52218;51.224;-2.328;2022-12-07T09:40:20;1.70;99.90
65074;DHT22;52218;51.224;-2.328;2022-12-07T09:44:11;2.00;99.90
65074;DHT22;52218;51.224;-2.328;2022-12-07T09:47:55;2.10;99.90
65074;DHT22;52218;51.224;-2.328;2022-12-07T09:51:37;2.10;99.90
65074;DHT22;52218;51.224;-2.328;2022-12-07T09:55:24;2.00;99.90
65074;DHT22;52218;51.224;-2.328;2022-12-07T09:59:13;2.10;99.90
65074;DHT22;52218;51.224;-2.328;2022-12-07T10:02:58;2.20;99.90
65074;DHT22;52218;51.224;-2.328;2022-12-07T10:06:41;2.30;99.90
65074;DHT22;52218;51.224;-2.328;2022-12-07T10:10:27;2.50;99.90
65074;DHT22;52218;51.224;-2.328;2022-12-07T10:14:14;2.60;99.90
65074;DHT22;52218;51.224;-2.328;2022-12-07T10:17:56;2.80;99.90
65074;DHT22;52218;51.224;-2.328;2022-12-07T10:25:40;3.40;99.90
65074;DHT22;52218;51.224;-2.328;2022-12-07T10:29:33;3.60;99.90
65074;DHT22;52218;51.224;-2.328;2022-12-07T10:33:34;4.20;99.90
65074;DHT22;52218;51.224;-2.328;2022-12-07T10:37:18;4.80;99.90
65074;DHT22;52218;51.224;-2.328;2022-12-07T10:41:06;5.30;99.90
65074;DHT22;52218;51.224;-2.328;2022-12-07T10:44:49;5.90;99.90
65074;DHT22;52218;51.224;-2.328;2022-12-07T10:52:48;6.80;99.90
65074;DHT22;52218;51.224;-2.328;2022-12-07T11:17:02;5.90;99.90
65074;DHT22;52218;51.224;-2.328;2022-12-07T11:37:02;6.40;99.90
65074;DHT22;52218;51.224;-2.328;2022-12-07T11:40:52;6.60;99.90
65074;DHT22;52218;51.224;-2.328;2022-12-07T11:45:10;7.10;99.90
65074;DHT22;52218;51.224;-2.328;2022-12-07T11:48:58;7.50;99.90
65074;DHT22;52218;51.224;-2.328;2022-12-07T11:56:55;7.90;99.90
65074;DHT22;52218;51.224;-2.328;2022-12-07T12:00:38;8.60;99.90
65074;DHT22;52218;51.224;-2.328;2022-12-07T12:04:34;9.50;99.90
65074;DHT22;52218;51.224;-2.328;2022-12-07T12:08:29;10.40;99.90
65074;DHT22;52218;51.224;-2.328;2022-12-07T12:20:57;11.60;99.90
65074;DHT22;52218;51.224;-2.328;2022-12-07T12:24:41;11.00;99.90
65074;DHT22;52218;51.224;-2.328;2022-12-07T12:28:29;10.30;99.90
65074;DHT22;52218;51.224;-2.328;2022-12-07T12:32:22;9.70;99.90
65074;DHT22;52218;51.224;-2.328;2022-12-07T12:43:56;9.10;99.90
65074;DHT22;52218;51.224;-2.328;2022-12-07T12:48:07;8.80;99.90
65074;DHT22;52218;51.224;-2.328;2022-12-07T12:59:59;8.30;99.90
65074;DHT22;52218;51.224;-2.328;2022-12-07T13:03:52;8.00;99.90
65074;DHT22;52218;51.224;-2.328;2022-12-07T13:07:49;7.70;99.90
65074;DHT22;52218;51.224;-2.328;2022-12-07T13:11:41;7.50;99.90
65074;DHT22;52218;51.224;-2.328;2022-12-07T13:15:36;7.40;99.90
65074;DHT22;52218;51.224;-2.328;2022-12-07T13:19:54;7.30;99.90
65074;DHT22;52218;51.224;-2.328;2022-12-07T13:27:28;7.10;99.90
65074;DHT22;52218;51.224;-2.328;2022-12-07T13:31:25;7.00;99.90
65074;DHT22;52218;51.224;-2.328;2022-12-07T13:35:31;6.90;99.90
65074;DHT22;52218;51.224;-2.328;2022-12-07T13:43:03;6.80;99.90
65074;DHT22;52218;51.224;-2.328;2022-12-07T13:50:53;6.70;99.90
65074;DHT22;52218;51.224;-2.328;2022-12-07T13:58:37;6.60;99.90
65074;DHT22;52218;51.224;-2.328;2022-12-07T14:02:31;6.50;99.90
65074;DHT22;52218;51.224;-2.328;2022-12-07T14:10:01;6.40;99.90
65074;DHT22;52218;51.224;-2.328;2022-12-07T14:14:04;6.30;99.90
65074;DHT22;52218;51.224;-2.328;2022-12-07T14:17:51;6.20;99.90
65074;DHT22;52218;51.224;-2.328;2022-12-07T14:21:36;6.10;99.90
65074;DHT22;52218;51.224;-2.328;2022-12-07T14:25:20;6.00;99.90
65074;DHT22;52218;51.224;-2.328;2022-12-07T14:33:08;5.80;99.90
65074;DHT22;52218;51.224;-2.328;2022-12-07T14:36:51;5.80;99.90
65074;DHT22;52218;51.224;-2.328;2022-12-07T14:40:33;5.80;99.90
65074;DHT22;52218;51.224;-2.328;2022-12-07T14:44:15;5.60;99.90
65074;DHT22;52218;51.224;-2.328;2022-12-07T14:48:15;5.60;99.90
65074;DHT22;52218;51.224;-2.328;2022-12-07T14:52:19;5.60;99.90
65074;DHT22;52218;51.224;-2.328;2022-12-07T14:56:22;5.50;99.90
65074;DHT22;52218;51.224;-2.328;2022-12-07T15:00:05;5.40;99.90
65074;DHT22;52218;51.224;-2.328;2022-12-07T15:03:47;5.40;99.90
65074;DHT22;52218;51.224;-2.328;2022-12-07T15:07:29;5.40;99.90
65074;DHT22;52218;51.224;-2.328;2022-12-07T15:11:15;5.30;99.90
65074;DHT22;52218;51.224;-2.328;2022-12-07T15:14:57;5.20;99.90
65074;DHT22;52218;51.224;-2.328;2022-12-07T15:18:39;5.10;99.90
65074;DHT22;52218;51.224;-2.328;2022-12-07T15:22:39;5.10;99.90
65074;DHT22;52218;51.224;-2.328;2022-12-07T15:26:21;5.00;99.90
65074;DHT22;52218;51.224;-2.328;2022-12-07T15:30:03;5.00;99.90
65074;DHT22;52218;51.224;-2.328;2022-12-07T15:33:45;4.90;99.90
65074;DHT22;52218;51.224;-2.328;2022-12-07T15:37:28;4.90;99.90
65074;DHT22;52218;51.224;-2.328;2022-12-07T15:41:10;4.80;99.90
65074;DHT22;52218;51.224;-2.328;2022-12-07T15:44:52;4.80;99.90
65074;DHT22;52218;51.224;-2.328;2022-12-07T15:48:47;4.70;99.90
65074;DHT22;52218;51.224;-2.328;2022-12-07T15:52:29;4.60;99.90
65074;DHT22;52218;51.224;-2.328;2022-12-07T15:56:12;4.60;99.90
65074;DHT22;52218;51.224;-2.328;2022-12-07T15:59:54;4.50;99.90
65074;DHT22;52218;51.224;-2.328;2022-12-07T16:03:35;4.40;99.90
65074;DHT22;52218;51.224;-2.328;2022-12-07T16:07:18;4.30;99.90
65074;DHT22;52218;51.224;-2.328;2022-12-07T16:11:03;4.30;99.90
65074;DHT22;52218;51.224;-2.328;2022-12-07T16:14:45;4.20;99.90
65074;DHT22;52218;51.224;-2.328;2022-12-07T16:18:27;4.10;99.90
65074;DHT22;52218;51.224;-2.328;2022-12-07T16:22:09;4.00;99.90
65074;DHT22;52218;51.224;-2.328;2022-12-07T16:25:51;3.90;99.90
65074;DHT22;52218;51.224;-2.328;2022-12-07T16:29:33;3.80;99.90
65074;DHT22;52218;51.224;-2.328;2022-12-07T16:33:15;3.70;99.90
65074;DHT22;52218;51.224;-2.328;2022-12-07T16:36:58;3.60;99.90
65074;DHT22;52218;51.224;-2.328;2022-12-07T16:40:47;3.50;99.90
65074;DHT22;52218;51.224;-2.328;2022-12-07T16:44:29;3.30;99.90
65074;DHT22;52218;51.224;-2.328;2022-12-07T16:48:12;3.20;99.90
65074;DHT22;52218;51.224;-2.328;2022-12-07T16:51:54;3.00;99.90
65074;DHT22;52218;51.224;-2.328;2022-12-07T16:55:56;2.80;99.90
65074;DHT22;52218;51.224;-2.328;2022-12-07T16:59:38;2.70;99.90
65074;DHT22;52218;51.224;-2.328;2022-12-07T17:03:20;2.60;99.90
65074;DHT22;52218;51.224;-2.328;2022-12-07T17:07:02;2.40;99.90
65074;DHT22;52218;51.224;-2.328;2022-12-07T17:10:45;2.30;99.90
65074;DHT22;52218;51.224;-2.328;2022-12-07T17:14:27;2.10;99.90
65074;DHT22;52218;51.224;-2.328;2022-12-07T17:18:31;2.00;99.90
65074;DHT22;52218;51.224;-2.328;2022-12-07T17:22:14;1.90;99.90
65074;DHT22;52218;51.224;-2.328;2022-12-07T17:25:56;1.70;99.90
65074;DHT22;52218;51.224;-2.328;2022-12-07T17:29:44;1.60;99.90
65074;DHT22;52218;51.224;-2.328;2022-12-07T17:33:26;1.50;99.90
65074;DHT22;52218;51.224;-2.328;2022-12-07T17:37:08;1.40;99.90
65074;DHT22;52218;51.224;-2.328;2022-12-07T17:40:50;1.20;99.90
65074;DHT22;52218;51.224;-2.328;2022-12-07T17:44:33;1.10;99.90
65074;DHT22;52218;51.224;-2.328;2022-12-07T17:48:15;1.00;99.90
65074;DHT22;52218;51.224;-2.328;2022-12-07T17:51:57;0.90;99.90
65074;DHT22;52218;51.224;-2.328;2022-12-07T17:55:57;0.80;99.90
65074;DHT22;52218;51.224;-2.328;2022-12-07T17:59:59;0.70;99.90
65074;DHT22;52218;51.224;-2.328;2022-12-07T18:03:41;0.60;99.90
65074;DHT22;52218;51.224;-2.328;2022-12-07T18:07:23;0.50;99.90
65074;DHT22;52218;51.224;-2.328;2022-12-07T18:11:06;0.40;99.90
65074;DHT22;52218;51.224;-2.328;2022-12-07T18:14:48;0.30;99.90
65074;DHT22;52218;51.224;-2.328;2022-12-07T18:18:32;0.30;99.90
65074;DHT22;52218;51.224;-2.328;2022-12-07T18:22:14;0.20;99.90
65074;DHT22;52218;51.224;-2.328;2022-12-07T18:25:56;0.10;99.90
65074;DHT22;52218;51.224;-2.328;2022-12-07T18:29:38;0.00;99.90
65074;DHT22;52218;51.224;-2.328;2022-12-07T18:33:20;0.00;99.90
65074;DHT22;52218;51.224;-2.328;2022-12-07T18:37:02;-0.10;99.90
65074;DHT22;52218;51.224;-2.328;2022-12-07T18:40:44;-0.20;99.90
65074;DHT22;52218;51.224;-2.328;2022-12-07T18:44:27;-0.20;99.90
65074;DHT22;52218;51.224;-2.328;2022-12-07T18:48:09;-0.30;99.90
65074;DHT22;52218;51.224;-2.328;2022-12-07T18:51:51;-0.30;99.90
65074;DHT22;52218;51.224;-2.328;2022-12-07T18:55:33;-0.40;99.90
65074;DHT22;52218;51.224;-2.328;2022-12-07T18:59:15;-0.40;99.90
65074;DHT22;52218;51.224;-2.328;2022-12-07T19:03:16;-0.50;99.90
65074;DHT22;52218;51.224;-2.328;2022-12-07T19:06:58;-0.60;99.90
65074;DHT22;52218;51.224;-2.328;2022-12-07T19:10:40;-0.60;99.90
65074;DHT22;52218;51.224;-2.328;2022-12-07T19:14:26;-0.60;99.90
65074;DHT22;52218;51.224;-2.328;2022-12-07T19:18:08;-0.70;99.90
65074;DHT22;52218;51.224;-2.328;2022-12-07T19:21:51;-0.70;99.90
65074;DHT22;52218;51.224;-2.328;2022-12-07T19:25:33;-0.80;99.90
65074;DHT22;52218;51.224;-2.328;2022-12-07T19:29:15;-0.80;99.90
65074;DHT22;52218;51.224;-2.328;2022-12-07T19:32:57;-0.80;99.90
65074;DHT22;52218;51.224;-2.328;2022-12-07T19:36:39;-0.90;99.90
65074;DHT22;52218;51.224;-2.328;2022-12-07T19:40:22;-0.90;99.90
65074;DHT22;52218;51.224;-2.328;2022-12-07T19:44:14;-1.00;99.90
65074;DHT22;52218;51.224;-2.328;2022-12-07T19:47:56;-1.10;99.90
65074;DHT22;52218;51.224;-2.328;2022-12-07T19:51:38;-1.10;99.90
65074;DHT22;52218;51.224;-2.328;2022-12-07T19:55:21;-1.10;99.90
65074;DHT22;52218;51.224;-2.328;2022-12-07T19:59:03;-1.20;99.90
65074;DHT22;52218;51.224;-2.328;2022-12-07T20:02:45;-1.20;99.90
65074;DHT22;52218;51.224;-2.328;2022-12-07T20:06:27;-1.30;99.90
65074;DHT22;52218;51.224;-2.328;2022-12-07T20:10:09;-1.30;99.90
65074;DHT22;52218;51.224;-2.328;2022-12-07T20:13:52;-1.40;99.90
65074;DHT22;52218;51.224;-2.328;2022-12-07T20:17:34;-1.40;99.90
65074;DHT22;52218;51.224;-2.328;2022-12-07T20:21:16;-1.40;99.90
65074;DHT22;52218;51.224;-2.328;2022-12-07T20:24:59;-1.40;99.90
65074;DHT22;52218;51.224;-2.328;2022-12-07T20:28:41;-1.50;99.90
65074;DHT22;52218;51.224;-2.328;2022-12-07T20:32:27;-1.50;99.90
65074;DHT22;52218;51.224;-2.328;2022-12-07T20:36:09;-1.50;99.90
65074;DHT22;52218;51.224;-2.328;2022-12-07T20:39:51;-1.50;99.90
65074;DHT22;52218;51.224;-2.328;2022-12-07T20:43:33;-1.60;99.90
65074;DHT22;52218;51.224;-2.328;2022-12-07T20:47:15;-1.60;99.90
65074;DHT22;52218;51.224;-2.328;2022-12-07T20:51:04;-1.50;99.90
65074;DHT22;52218;51.224;-2.328;2022-12-07T20:54:46;-1.50;99.90
65074;DHT22;52218;51.224;-2.328;2022-12-07T20:58:28;-1.50;99.90
65074;DHT22;52218;51.224;-2.328;2022-12-07T21:02:12;-1.40;99.90
65074;DHT22;52218;51.224;-2.328;2022-12-07T21:05:54;-1.40;99.90
65074;DHT22;52218;51.224;-2.328;2022-12-07T21:09:36;-1.40;99.90
65074;DHT22;52218;51.224;-2.328;2022-12-07T21:13:18;-1.40;99.90
65074;DHT22;52218;51.224;-2.328;2022-12-07T21:17:00;-1.40;99.90
65074;DHT22;52218;51.224;-2.328;2022-12-07T21:20:42;-1.40;99.90
65074;DHT22;52218;51.224;-2.328;2022-12-07T21:24:24;-1.40;99.90
65074;DHT22;52218;51.224;-2.328;2022-12-07T21:28:06;-1.40;99.90
65074;DHT22;52218;51.224;-2.328;2022-12-07T21:31:48;-1.40;99.90
65074;DHT22;52218;51.224;-2.328;2022-12-07T21:35:30;-1.40;99.90
65074;DHT22;52218;51.224;-2.328;2022-12-07T21:39:12;-1.50;99.90
65074;DHT22;52218;51.224;-2.328;2022-12-07T21:42:54;-1.50;99.90
65074;DHT22;52218;51.224;-2.328;2022-12-07T21:46:38;-1.50;99.90
65074;DHT22;52218;51.224;-2.328;2022-12-07T21:50:20;-1.50;99.90
65074;DHT22;52218;51.224;-2.328;2022-12-07T21:54:03;-1.60;99.90
65074;DHT22;52218;51.224;-2.328;2022-12-07T21:57:46;-1.60;99.90
65074;DHT22;52218;51.224;-2.328;2022-12-07T22:01:29;-1.60;99.90
65074;DHT22;52218;51.224;-2.328;2022-12-07T22:05:14;-1.60;99.90
65074;DHT22;52218;51.224;-2.328;2022-12-07T22:08:56;-1.60;99.90
65074;DHT22;52218;51.224;-2.328;2022-12-07T22:12:38;-1.70;99.90
65074;DHT22;52218;51.224;-2.328;2022-12-07T22:16:21;-1.70;99.90
65074;DHT22;52218;51.224;-2.328;2022-12-07T22:20:03;-1.70;99.90
65074;DHT22;52218;51.224;-2.328;2022-12-07T22:23:45;-1.80;99.90
65074;DHT22;52218;51.224;-2.328;2022-12-07T22:27:27;-1.80;99.90
65074;DHT22;52218;51.224;-2.328;2022-12-07T22:31:12;-1.80;99.90
65074;DHT22;52218;51.224;-2.328;2022-12-07T22:34:55;-1.80;99.90
65074;DHT22;52218;51.224;-2.328;2022-12-07T22:38:38;-1.90;99.90
65074;DHT22;52218;51.224;-2.328;2022-12-07T22:42:20;-1.90;99.90
65074;DHT22;52218;51.224;-2.328;2022-12-07T22:46:02;-1.90;99.90
65074;DHT22;52218;51.224;-2.328;2022-12-07T22:49:44;-2.00;99.90
65074;DHT22;52218;51.224;-2.328;2022-12-07T22:53:27;-2.00;99.90
65074;DHT22;52218;51.224;-2.328;2022-12-07T22:57:09;-2.00;99.90
65074;DHT22;52218;51.224;-2.328;2022-12-07T23:00:51;-2.00;99.90
65074;DHT22;52218;51.224;-2.328;2022-12-07T23:04:33;-2.00;99.90
65074;DHT22;52218;51.224;-2.328;2022-12-07T23:08:15;-2.00;99.90
65074;DHT22;52218;51.224;-2.328;2022-12-07T23:11:58;-2.10;99.90
65074;DHT22;52218;51.224;-2.328;2022-12-07T23:16:00;-2.10;99.90
65074;DHT22;52218;51.224;-2.328;2022-12-07T23:19:48;-2.10;99.90
65074;DHT22;52218;51.224;-2.328;2022-12-07T23:23:36;-2.10;99.90
65074;DHT22;52218;51.224;-2.328;2022-12-07T23:27:18;-2.20;99.90
65074;DHT22;52218;51.224;-2.328;2022-12-07T23:31:04;-2.20;99.90
65074;DHT22;52218;51.224;-2.328;2022-12-07T23:34:48;-2.20;99.90
65074;DHT22;52218;51.224;-2.328;2022-12-07T23:38:30;-2.30;99.90
65074;DHT22;52218;51.224;-2.328;2022-12-07T23:42:12;-2.30;99.90
65074;DHT22;52218;51.224;-2.328;2022-12-07T23:45:54;-2.30;99.90
65074;DHT22;52218;51.224;-2.328;2022-12-07T23:49:36;-2.40;99.90
65074;DHT22;52218;51.224;-2.328;2022-12-07T23:53:18;-2.40;99.90
65074;DHT22;52218;51.224;-2.328;2022-12-07T23:57:00;-2.40;99.90
